Time,TemperatureF,DewpointF,PressureIn,WindDirection,WindDirectionDegrees,WindSpeedMPH,WindSpeedGustMPH,Humidity,HourlyPrecipIn,Conditions,Clouds,dailyrainin,SoftwareType,DateUTC
2013-05-12 00:04:00,54.2,49.8,29.99,SSE,168,0.0,1.0,85,0.00,,,0.00,Wunderground v.1.15,2013-05-12 05:04:00,
2013-05-12 00:10:00,54.2,50.4,29.99,South,187,0.0,1.0,87,0.00,,,0.00,Wunderground v.1.15,2013-05-12 05:10:00,
2013-05-12 00:15:00,53.8,50.0,29.99,North,5,0.0,1.0,87,0.00,,,0.00,Wunderground v.1.15,2013-05-12 05:15:00,
2013-05-12 00:20:00,53.4,49.9,29.99,North,3,0.0,1.0,88,0.00,,,0.00,Wunderground v.1.15,2013-05-12 05:20:00,
2013-05-12 00:26:00,53.0,49.8,29.99,North,5,0.0,1.0,89,0.00,,,0.00,Wunderground v.1.15,2013-05-12 05:26:00,
2013-05-12 00:31:00,52.7,49.8,29.99,NE,54,0.0,1.0,90,0.00,,,0.00,Wunderground v.1.15,2013-05-12 05:31:00,
2013-05-12 00:36:00,52.5,49.9,29.99,NNE,13,0.0,1.0,91,0.00,,,0.00,Wunderground v.1.15,2013-05-12 05:36:00,
2013-05-12 00:41:00,52.5,49.9,29.99,NNE,19,0.0,1.0,91,0.00,,,0.00,Wunderground v.1.15,2013-05-12 05:41:00,
2013-05-12 00:47:00,52.4,49.8,29.99,NE,35,0.0,1.0,91,0.00,,,0.00,Wunderground v.1.15,2013-05-12 05:47:00,
2013-05-12 00:52:00,52.2,49.7,29.99,ESE,107,0.0,1.0,91,0.00,,,0.00,Wunderground v.1.15,2013-05-12 05:52:00,
2013-05-12 00:57:00,52.2,49.7,29.99,ESE,107,0.0,1.0,91,0.00,,,0.00,Wunderground v.1.15,2013-05-12 05:57:00,
2013-05-12 01:03:00,52.3,49.8,29.99,ESE,107,0.0,1.0,91,0.00,,,0.00,Wunderground v.1.15,2013-05-12 06:03:00,
2013-05-12 01:08:00,52.5,49.9,29.99,ESE,107,0.0,1.0,91,0.00,,,0.00,Wunderground v.1.15,2013-05-12 06:08:00,
2013-05-12 01:13:00,52.6,49.8,29.99,ESE,109,0.0,1.0,90,0.00,,,0.00,Wunderground v.1.15,2013-05-12 06:13:00,
2013-05-12 01:19:00,52.7,49.8,29.98,ENE,70,0.0,1.0,90,0.00,,,0.00,Wunderground v.1.15,2013-05-12 06:19:00,
2013-05-12 01:24:00,52.8,49.9,29.99,WSW,254,1.0,2.0,90,0.00,,,0.00,Wunderground v.1.15,2013-05-12 06:24:00,
2013-05-12 01:29:00,52.6,50.0,29.98,WSW,252,0.0,2.0,91,0.00,,,0.00,Wunderground v.1.15,2013-05-12 06:29:00,
2013-05-12 01:34:00,52.8,50.5,29.98,WSW,254,0.0,1.0,92,0.00,,,0.00,Wunderground v.1.15,2013-05-12 06:34:00,
2013-05-12 01:40:00,52.9,50.3,29.98,WSW,254,0.0,1.0,91,0.00,,,0.00,Wunderground v.1.15,2013-05-12 06:40:00,
2013-05-12 01:45:00,53.3,50.7,29.98,WSW,253,0.0,1.0,91,0.00,,,0.00,Wunderground v.1.15,2013-05-12 06:45:00,
2013-05-12 01:50:00,53.7,50.8,29.99,WSW,252,0.0,1.0,90,0.00,,,0.00,Wunderground v.1.15,2013-05-12 06:50:00,
2013-05-12 01:56:00,53.9,50.7,29.99,SW,216,0.0,2.0,89,0.00,,,0.00,Wunderground v.1.15,2013-05-12 06:56:00,
2013-05-12 02:01:00,53.9,51.0,29.99,WSW,241,0.0,1.0,90,0.00,,,0.00,Wunderground v.1.15,2013-05-12 07:01:00,
2013-05-12 02:06:00,54.2,51.0,29.99,NW,304,0.0,1.0,89,0.00,,,0.00,Wunderground v.1.15,2013-05-12 07:06:00,
2013-05-12 02:12:00,54.6,51.4,29.99,West,278,0.0,1.0,89,0.00,,,0.00,Wunderground v.1.15,2013-05-12 07:12:00,
2013-05-12 02:18:00,54.7,51.5,29.99,WSW,249,0.0,1.0,89,0.00,,,0.00,Wunderground v.1.15,2013-05-12 07:18:00,
2013-05-12 02:23:00,54.6,51.1,29.99,WSW,244,0.0,1.0,88,0.00,,,0.00,Wunderground v.1.15,2013-05-12 07:23:00,
2013-05-12 02:28:00,54.9,51.1,30.00,SSW,212,1.0,2.0,87,0.00,,,0.00,Wunderground v.1.15,2013-05-12 07:28:00,
2013-05-12 02:34:00,55.2,51.1,30.00,SW,219,1.0,2.0,86,0.00,,,0.00,Wunderground v.1.15,2013-05-12 07:34:00,
2013-05-12 02:39:00,55.5,50.7,30.00,SW,216,1.0,2.0,84,0.00,,,0.00,Wunderground v.1.15,2013-05-12 07:39:00,
2013-05-12 02:44:00,55.7,50.6,30.00,SW,231,1.0,2.0,83,0.00,,,0.00,Wunderground v.1.15,2013-05-12 07:44:00,
2013-05-12 02:50:00,55.8,49.4,30.00,SW,227,1.0,2.0,79,0.00,,,0.00,Wunderground v.1.15,2013-05-12 07:50:00,
2013-05-12 02:55:00,55.9,48.8,30.00,SW,217,2.0,3.0,77,0.00,,,0.00,Wunderground v.1.15,2013-05-12 07:55:00,
2013-05-12 03:00:00,56.0,49.2,30.00,SW,221,2.0,2.0,78,0.00,,,0.00,Wunderground v.1.15,2013-05-12 08:00:00,
2013-05-12 03:05:00,55.9,48.4,30.01,West,262,2.0,3.0,76,0.00,,,0.00,Wunderground v.1.15,2013-05-12 08:05:00,
2013-05-12 03:11:00,55.7,47.9,30.00,SW,224,2.0,2.0,75,0.00,,,0.00,Wunderground v.1.15,2013-05-12 08:11:00,
2013-05-12 03:16:00,55.6,46.7,30.01,SW,222,1.0,4.0,72,0.00,,,0.00,Wunderground v.1.15,2013-05-12 08:16:00,
2013-05-12 03:21:00,55.5,45.9,30.01,SSE,166,2.0,2.0,70,0.00,,,0.00,Wunderground v.1.15,2013-05-12 08:21:00,
2013-05-12 03:27:00,55.4,45.4,30.01,ESE,110,2.0,2.0,69,0.00,,,0.00,Wunderground v.1.15,2013-05-12 08:27:00,
2013-05-12 03:32:00,55.3,45.3,30.01,SW,223,2.0,2.0,69,0.00,,,0.00,Wunderground v.1.15,2013-05-12 08:32:00,
2013-05-12 03:37:00,55.2,44.4,30.01,SSW,200,2.0,2.0,67,0.00,,,0.00,Wunderground v.1.15,2013-05-12 08:37:00,
2013-05-12 03:43:00,55.1,44.3,30.01,SW,222,1.0,2.0,67,0.00,,,0.00,Wunderground v.1.15,2013-05-12 08:43:00,
2013-05-12 03:48:00,54.9,44.1,30.01,SW,215,2.0,2.0,67,0.00,,,0.00,Wunderground v.1.15,2013-05-12 08:48:00,
2013-05-12 03:53:00,54.8,44.8,30.01,SW,214,2.0,4.0,69,0.00,,,0.00,Wunderground v.1.15,2013-05-12 08:53:00,
2013-05-12 03:58:00,54.7,44.0,30.01,SSE,157,2.0,4.0,67,0.00,,,0.00,Wunderground v.1.15,2013-05-12 08:58:00,
2013-05-12 04:04:00,54.6,43.5,30.01,SW,223,1.0,2.0,66,0.00,,,0.00,Wunderground v.1.15,2013-05-12 09:04:00,
2013-05-12 04:09:00,54.5,43.4,30.01,SE,127,1.0,2.0,66,0.00,,,0.00,Wunderground v.1.15,2013-05-12 09:09:00,
2013-05-12 04:14:00,54.4,43.3,30.02,SW,233,1.0,2.0,66,0.00,,,0.00,Wunderground v.1.15,2013-05-12 09:14:00,
2013-05-12 04:20:00,54.2,41.9,30.02,SSW,200,1.0,1.0,63,0.00,,,0.00,Wunderground v.1.15,2013-05-12 09:20:00,
2013-05-12 04:25:00,54.2,41.5,30.02,ENE,67,2.0,4.0,62,0.00,,,0.00,Wunderground v.1.15,2013-05-12 09:25:00,
2013-05-12 04:30:00,54.1,41.4,30.02,SW,234,2.0,3.0,62,0.00,,,0.00,Wunderground v.1.15,2013-05-12 09:30:00,
2013-05-12 04:35:00,54.0,40.8,30.02,SW,214,2.0,6.0,61,0.00,,,0.00,Wunderground v.1.15,2013-05-12 09:35:00,
2013-05-12 04:41:00,53.6,41.3,30.02,SSW,212,2.0,2.0,63,0.00,,,0.00,Wunderground v.1.15,2013-05-12 09:41:00,
2013-05-12 04:46:00,53.4,41.1,30.02,SW,228,2.0,4.0,63,0.00,,,0.00,Wunderground v.1.15,2013-05-12 09:46:00,
2013-05-12 04:51:00,53.0,40.7,30.02,SW,221,2.0,2.0,63,0.00,,,0.00,Wunderground v.1.15,2013-05-12 09:51:00,
2013-05-12 04:57:00,52.8,40.5,30.03,SW,222,2.0,3.0,63,0.00,,,0.00,Wunderground v.1.15,2013-05-12 09:57:00,
2013-05-12 05:02:00,52.6,39.9,30.03,SW,223,2.0,2.0,62,0.00,,,0.00,Wunderground v.1.15,2013-05-12 10:02:00,
2013-05-12 05:07:00,52.5,40.3,30.03,WSW,254,2.0,5.0,63,0.00,,,0.00,Wunderground v.1.15,2013-05-12 10:07:00,
2013-05-12 05:13:00,52.1,40.3,30.03,SW,235,2.0,2.0,64,0.00,,,0.00,Wunderground v.1.15,2013-05-12 10:13:00,
2013-05-12 05:19:00,51.5,41.3,30.04,SW,235,1.0,2.0,68,0.00,,,0.00,Wunderground v.1.15,2013-05-12 10:19:00,
2013-05-12 05:24:00,51.0,40.0,30.04,SE,140,0.0,3.0,66,0.00,,,0.00,Wunderground v.1.15,2013-05-12 10:24:00,
2013-05-12 05:29:00,50.9,39.9,30.04,SE,126,1.0,3.0,66,0.00,,,0.00,Wunderground v.1.15,2013-05-12 10:29:00,
2013-05-12 05:35:00,50.6,40.0,30.04,SSW,213,1.0,2.0,67,0.00,,,0.00,Wunderground v.1.15,2013-05-12 10:35:00,
2013-05-12 05:40:00,50.3,40.5,30.05,SW,217,1.0,3.0,69,0.00,,,0.00,Wunderground v.1.15,2013-05-12 10:40:00,
2013-05-12 05:45:00,50.3,38.6,30.05,SSW,207,2.0,4.0,64,0.00,,,0.00,Wunderground v.1.15,2013-05-12 10:45:00,
2013-05-12 05:51:00,50.3,39.0,30.05,SSW,200,1.0,2.0,65,0.00,,,0.00,Wunderground v.1.15,2013-05-12 10:51:00,
2013-05-12 05:56:00,50.3,38.2,30.05,SW,216,1.0,2.0,63,0.00,,,0.00,Wunderground v.1.15,2013-05-12 10:56:00,
2013-05-12 06:01:00,50.0,38.7,30.05,SSW,209,1.0,1.0,65,0.00,,,0.00,Wunderground v.1.15,2013-05-12 11:01:00,
2013-05-12 06:06:00,49.7,38.4,30.05,SW,215,1.0,1.0,65,0.00,,,0.00,Wunderground v.1.15,2013-05-12 11:06:00,
2013-05-12 06:12:00,49.6,38.7,30.06,SW,230,1.0,1.0,66,0.00,,,0.00,Wunderground v.1.15,2013-05-12 11:12:00,
2013-05-12 06:17:00,49.5,38.6,30.07,SW,225,0.0,2.0,66,0.00,,,0.00,Wunderground v.1.15,2013-05-12 11:17:00,
2013-05-12 06:22:00,49.5,39.0,30.07,SW,216,1.0,1.0,67,0.00,,,0.00,Wunderground v.1.15,2013-05-12 11:22:00,
2013-05-12 06:28:00,49.5,38.6,30.07,SW,234,1.0,2.0,66,0.00,,,0.00,Wunderground v.1.15,2013-05-12 11:28:00,
2013-05-12 06:33:00,49.5,38.6,30.07,SW,216,1.0,2.0,66,0.00,,,0.00,Wunderground v.1.15,2013-05-12 11:33:00,
2013-05-12 06:38:00,49.6,39.1,30.08,South,188,1.0,2.0,67,0.00,,,0.00,Wunderground v.1.15,2013-05-12 11:38:00,
2013-05-12 06:44:00,49.6,38.7,30.08,SSW,197,1.0,3.0,66,0.00,,,0.00,Wunderground v.1.15,2013-05-12 11:44:00,
2013-05-12 06:49:00,49.9,38.2,30.07,SW,228,1.0,4.0,64,0.00,,,0.00,Wunderground v.1.15,2013-05-12 11:49:00,
2013-05-12 06:54:00,50.1,38.4,30.08,SW,233,1.0,2.0,64,0.00,,,0.00,Wunderground v.1.15,2013-05-12 11:54:00,
2013-05-12 06:59:00,50.2,37.3,30.08,ESE,118,1.0,4.0,61,0.00,,,0.00,Wunderground v.1.15,2013-05-12 11:59:00,
2013-05-12 07:06:00,50.5,38.0,30.08,WSW,245,1.0,3.0,62,0.00,,,0.00,Wunderground v.1.15,2013-05-12 12:06:00,
2013-05-12 07:11:00,50.6,38.1,30.08,SW,228,1.0,1.0,62,0.00,,,0.00,Wunderground v.1.15,2013-05-12 12:11:00,
2013-05-12 07:16:00,50.8,37.4,30.08,SW,228,1.0,5.0,60,0.00,,,0.00,Wunderground v.1.15,2013-05-12 12:16:00,
2013-05-12 07:22:00,50.9,38.3,30.08,SW,233,1.0,2.0,62,0.00,,,0.00,Wunderground v.1.15,2013-05-12 12:22:00,
2013-05-12 07:27:00,51.0,37.2,30.08,SW,219,1.0,4.0,59,0.00,,,0.00,Wunderground v.1.15,2013-05-12 12:27:00,
2013-05-12 07:33:00,51.4,36.7,30.08,SW,222,2.0,4.0,57,0.00,,,0.00,Wunderground v.1.15,2013-05-12 12:33:00,
2013-05-12 07:38:00,51.6,36.4,30.08,SW,221,2.0,4.0,56,0.00,,,0.00,Wunderground v.1.15,2013-05-12 12:38:00,
2013-05-12 07:43:00,51.8,36.1,30.08,SSW,204,1.0,3.0,55,0.00,,,0.00,Wunderground v.1.15,2013-05-12 12:43:00,
2013-05-12 07:49:00,52.1,35.5,30.08,SW,217,2.0,7.0,53,0.00,,,0.00,Wunderground v.1.15,2013-05-12 12:49:00,
2013-05-12 07:54:00,52.2,36.5,30.08,WSW,238,2.0,4.0,55,0.00,,,0.00,Wunderground v.1.15,2013-05-12 12:54:00,
2013-05-12 07:59:00,52.3,37.5,30.08,SW,220,2.0,4.0,57,0.00,,,0.00,Wunderground v.1.15,2013-05-12 12:59:00,
2013-05-12 08:05:00,52.6,36.9,30.09,WSW,239,2.0,4.0,55,0.00,,,0.00,Wunderground v.1.15,2013-05-12 13:05:00,
2013-05-12 08:10:00,52.8,36.6,30.09,East,93,2.0,2.0,54,0.00,,,0.00,Wunderground v.1.15,2013-05-12 13:10:00,
2013-05-12 08:15:00,53.0,36.8,30.09,SW,235,2.0,6.0,54,0.00,,,0.00,Wunderground v.1.15,2013-05-12 13:15:00,
2013-05-12 08:20:00,53.2,36.5,30.09,SE,127,2.0,2.0,53,0.00,,,0.00,Wunderground v.1.15,2013-05-12 13:20:00,
2013-05-12 08:26:00,53.4,34.7,30.09,SSW,212,2.0,4.0,49,0.00,,,0.00,Wunderground v.1.15,2013-05-12 13:26:00,
2013-05-12 08:31:00,53.6,35.4,30.09,WSW,258,2.0,3.0,50,0.00,,,0.00,Wunderground v.1.15,2013-05-12 13:31:00,
2013-05-12 08:36:00,53.8,36.1,30.09,SSW,212,2.0,4.0,51,0.00,,,0.00,Wunderground v.1.15,2013-05-12 13:36:00,
2013-05-12 08:42:00,53.9,35.7,30.09,SW,233,2.0,8.0,50,0.00,,,0.00,Wunderground v.1.15,2013-05-12 13:42:00,
2013-05-12 08:47:00,54.1,35.9,30.09,SW,216,2.0,8.0,50,0.00,,,0.00,Wunderground v.1.15,2013-05-12 13:47:00,
2013-05-12 08:52:00,54.6,38.3,30.09,WSW,242,2.0,2.0,54,0.00,,,0.00,Wunderground v.1.15,2013-05-12 13:52:00,
2013-05-12 08:58:00,55.0,36.7,30.09,WSW,245,1.0,2.0,50,0.00,,,0.00,Wunderground v.1.15,2013-05-12 13:58:00,
2013-05-12 09:03:00,55.3,36.5,30.09,SW,218,1.0,3.0,49,0.00,,,0.00,Wunderground v.1.15,2013-05-12 14:03:00,
2013-05-12 09:08:00,55.3,35.4,30.10,SW,228,1.0,3.0,47,0.00,,,0.00,Wunderground v.1.15,2013-05-12 14:08:00,
2013-05-12 09:13:00,55.6,35.7,30.10,SW,231,2.0,4.0,47,0.00,,,0.00,Wunderground v.1.15,2013-05-12 14:13:00,
2013-05-12 09:19:00,55.8,33.6,30.10,SW,227,2.0,4.0,43,0.00,,,0.00,Wunderground v.1.15,2013-05-12 14:19:00,
2013-05-12 09:24:00,55.8,35.3,30.10,SSW,211,2.0,4.0,46,0.00,,,0.00,Wunderground v.1.15,2013-05-12 14:24:00,
2013-05-12 09:29:00,56.1,35.0,30.10,WSW,249,2.0,4.0,45,0.00,,,0.00,Wunderground v.1.15,2013-05-12 14:29:00,
2013-05-12 09:34:00,56.3,34.6,30.10,ESE,121,2.0,3.0,44,0.00,,,0.00,Wunderground v.1.15,2013-05-12 14:34:00,
2013-05-12 09:40:00,56.5,34.3,30.10,WSW,238,2.0,2.0,43,0.00,,,0.00,Wunderground v.1.15,2013-05-12 14:40:00,
2013-05-12 09:45:00,56.5,35.4,30.10,SW,220,2.0,2.0,45,0.00,,,0.00,Wunderground v.1.15,2013-05-12 14:45:00,
2013-05-12 09:50:00,56.6,33.2,30.10,SW,223,2.0,2.0,41,0.00,,,0.00,Wunderground v.1.15,2013-05-12 14:50:00,
2013-05-12 09:56:00,57.1,35.4,30.10,ESE,116,3.0,4.0,44,0.00,,,0.00,Wunderground v.1.15,2013-05-12 14:56:00,
2013-05-12 10:01:00,57.1,34.2,30.10,SSW,199,2.0,4.0,42,0.00,,,0.00,Wunderground v.1.15,2013-05-12 15:01:00,
2013-05-12 10:06:00,57.1,33.0,30.10,ESE,122,3.0,5.0,40,0.00,,,0.00,Wunderground v.1.15,2013-05-12 15:06:00,
2013-05-12 10:12:00,57.8,33.0,30.10,WSW,249,3.0,3.0,39,0.00,,,0.00,Wunderground v.1.15,2013-05-12 15:12:00,
2013-05-12 10:17:00,57.4,33.3,30.10,East,92,2.0,3.0,40,0.00,,,0.00,Wunderground v.1.15,2013-05-12 15:17:00,
2013-05-12 10:22:00,58.0,33.8,30.11,SSW,211,2.0,2.0,40,0.00,,,0.00,Wunderground v.1.15,2013-05-12 15:22:00,
2013-05-12 10:27:00,58.4,34.2,30.11,WSW,246,1.0,2.0,40,0.00,,,0.00,Wunderground v.1.15,2013-05-12 15:27:00,
2013-05-12 10:33:00,58.6,34.3,30.11,WSW,254,2.0,4.0,40,0.00,,,0.00,Wunderground v.1.15,2013-05-12 15:33:00,
2013-05-12 10:38:00,58.4,32.9,30.11,WSW,250,3.0,4.0,38,0.00,,,0.00,Wunderground v.1.15,2013-05-12 15:38:00,
2013-05-12 10:44:00,58.6,33.0,30.11,East,99,3.0,4.0,38,0.00,,,0.00,Wunderground v.1.15,2013-05-12 15:44:00,
2013-05-12 10:49:00,58.8,32.6,30.11,SW,222,2.0,4.0,37,0.00,,,0.00,Wunderground v.1.15,2013-05-12 15:49:00,
2013-05-12 10:54:00,59.3,36.2,30.11,ESE,105,2.0,4.0,42,0.00,,,0.00,Wunderground v.1.15,2013-05-12 15:54:00,
2013-05-12 10:59:00,59.3,33.7,30.11,SW,235,3.0,4.0,38,0.00,,,0.00,Wunderground v.1.15,2013-05-12 15:59:00,
2013-05-12 11:05:00,59.6,33.9,30.11,WSW,257,3.0,3.0,38,0.00,,,0.00,Wunderground v.1.15,2013-05-12 16:05:00,
2013-05-12 11:10:00,59.8,33.5,30.11,WSW,237,2.0,2.0,37,0.00,,,0.00,Wunderground v.1.15,2013-05-12 16:10:00,
2013-05-12 11:15:00,60.2,34.5,30.10,WSW,254,2.0,2.0,38,0.00,,,0.00,Wunderground v.1.15,2013-05-12 16:15:00,
2013-05-12 11:21:00,60.7,38.1,30.11,WSW,251,2.0,2.0,43,0.00,,,0.00,Wunderground v.1.15,2013-05-12 16:21:00,
2013-05-12 11:26:00,61.3,34.8,30.11,WSW,250,2.0,3.0,37,0.00,,,0.00,Wunderground v.1.15,2013-05-12 16:26:00,
2013-05-12 11:31:00,62.0,35.4,30.11,SE,143,2.0,2.0,37,0.00,,,0.00,Wunderground v.1.15,2013-05-12 16:31:00,
2013-05-12 11:37:00,62.1,34.1,30.11,NE,36,2.0,3.0,35,0.00,,,0.00,Wunderground v.1.15,2013-05-12 16:37:00,
2013-05-12 11:42:00,62.3,32.8,30.11,ENE,65,2.0,2.0,33,0.00,,,0.00,Wunderground v.1.15,2013-05-12 16:42:00,
2013-05-12 11:47:00,62.9,35.5,30.11,East,79,1.0,2.0,36,0.00,,,0.00,Wunderground v.1.15,2013-05-12 16:47:00,
2013-05-12 11:52:00,63.6,36.1,30.11,West,268,1.0,2.0,36,0.00,,,0.00,Wunderground v.1.15,2013-05-12 16:52:00,
2013-05-12 11:58:00,63.3,35.9,30.11,North,351,2.0,3.0,36,0.00,,,0.00,Wunderground v.1.15,2013-05-12 16:58:00,
2013-05-12 12:03:00,63.1,33.5,30.11,North,359,2.0,3.0,33,0.00,,,0.00,Wunderground v.1.15,2013-05-12 17:03:00,
2013-05-12 12:08:00,63.7,36.2,30.10,SW,228,2.0,3.0,36,0.00,,,0.00,Wunderground v.1.15,2013-05-12 17:08:00,
2013-05-12 12:13:00,63.6,35.4,30.10,East,99,2.0,5.0,35,0.00,,,0.00,Wunderground v.1.15,2013-05-12 17:13:00,
2013-05-12 12:19:00,63.6,33.2,30.10,East,82,2.0,5.0,32,0.00,,,0.00,Wunderground v.1.15,2013-05-12 17:19:00,
2013-05-12 12:24:00,64.2,33.7,30.10,ESE,116,2.0,2.0,32,0.00,,,0.00,Wunderground v.1.15,2013-05-12 17:24:00,
2013-05-12 12:29:00,64.0,35.8,30.10,ESE,105,2.0,3.0,35,0.00,,,0.00,Wunderground v.1.15,2013-05-12 17:29:00,
2013-05-12 12:35:00,63.6,33.9,30.10,SW,215,2.0,5.0,33,0.00,,,0.00,Wunderground v.1.15,2013-05-12 17:35:00,
2013-05-12 12:40:00,63.8,34.9,30.10,WSW,240,2.0,6.0,34,0.00,,,0.00,Wunderground v.1.15,2013-05-12 17:40:00,
2013-05-12 12:45:00,63.6,32.4,30.09,WSW,238,2.0,6.0,31,0.00,,,0.00,Wunderground v.1.15,2013-05-12 17:45:00,
2013-05-12 12:51:00,63.6,38.2,30.09,SW,221,3.0,3.0,39,0.00,,,0.00,Wunderground v.1.15,2013-05-12 17:51:00,
2013-05-12 12:56:00,64.2,33.7,30.09,East,88,3.0,3.0,32,0.00,,,0.00,Wunderground v.1.15,2013-05-12 17:56:00,
2013-05-12 13:01:00,64.4,36.1,30.10,SW,222,2.0,4.0,35,0.00,,,0.00,Wunderground v.1.15,2013-05-12 18:01:00,
2013-05-12 13:07:00,64.2,33.7,30.09,West,267,2.0,4.0,32,0.00,,,0.00,Wunderground v.1.15,2013-05-12 18:07:00,
2013-05-12 13:12:00,64.4,35.4,30.09,ESE,105,3.0,3.0,34,0.00,,,0.00,Wunderground v.1.15,2013-05-12 18:12:00,
2013-05-12 13:17:00,65.3,36.2,30.09,SW,235,2.0,7.0,34,0.00,,,0.00,Wunderground v.1.15,2013-05-12 18:17:00,
2013-05-12 13:23:00,64.6,34.1,30.09,West,265,3.0,4.0,32,0.00,,,0.00,Wunderground v.1.15,2013-05-12 18:23:00,
2013-05-12 13:28:00,65.3,35.4,30.09,East,96,2.0,4.0,33,0.00,,,0.00,Wunderground v.1.15,2013-05-12 18:28:00,
2013-05-12 13:34:00,65.8,36.6,30.09,North,5,2.0,4.0,34,0.00,,,0.00,Wunderground v.1.15,2013-05-12 18:34:00,
2013-05-12 13:39:00,66.2,39.1,30.09,East,97,2.0,6.0,37,0.00,,,0.00,Wunderground v.1.15,2013-05-12 18:39:00,
2013-05-12 13:44:00,66.1,35.4,30.09,NNW,341,1.0,3.0,32,0.00,,,0.00,Wunderground v.1.15,2013-05-12 18:44:00,
2013-05-12 13:50:00,66.5,34.9,30.08,NNE,26,1.0,1.0,31,0.00,,,0.00,Wunderground v.1.15,2013-05-12 18:50:00,
2013-05-12 13:56:00,66.6,34.2,30.08,SSE,160,1.0,3.0,30,0.00,,,0.00,Wunderground v.1.15,2013-05-12 18:56:00,
2013-05-12 14:01:00,66.4,37.2,30.08,SW,214,2.0,2.0,34,0.00,,,0.00,Wunderground v.1.15,2013-05-12 19:01:00,
2013-05-12 14:06:00,66.5,34.1,30.08,NNW,335,2.0,3.0,30,0.00,,,0.00,Wunderground v.1.15,2013-05-12 19:06:00,
2013-05-12 14:12:00,66.3,33.9,30.07,WSW,255,2.0,3.0,30,0.00,,,0.00,Wunderground v.1.15,2013-05-12 19:12:00,
2013-05-12 14:17:00,66.2,36.2,30.07,West,259,2.0,3.0,33,0.00,,,0.00,Wunderground v.1.15,2013-05-12 19:17:00,
2013-05-12 14:22:00,66.2,34.7,30.07,SW,222,3.0,3.0,31,0.00,,,0.00,Wunderground v.1.15,2013-05-12 19:22:00,
2013-05-12 14:28:00,65.5,33.2,30.07,WSW,247,3.0,7.0,30,0.00,,,0.00,Wunderground v.1.15,2013-05-12 19:28:00,
2013-05-12 14:33:00,65.7,35.0,30.06,ESE,110,3.0,3.0,32,0.00,,,0.00,Wunderground v.1.15,2013-05-12 19:33:00,
2013-05-12 14:38:00,66.4,34.8,30.06,South,190,2.0,3.0,31,0.00,,,0.00,Wunderground v.1.15,2013-05-12 19:38:00,
2013-05-12 14:43:00,66.3,34.7,30.06,SW,231,2.0,8.0,31,0.00,,,0.00,Wunderground v.1.15,2013-05-12 19:43:00,
2013-05-12 14:49:00,66.7,36.7,30.06,SW,222,2.0,8.0,33,0.00,,,0.00,Wunderground v.1.15,2013-05-12 19:49:00,
2013-05-12 14:54:00,66.5,34.9,30.06,SW,223,2.0,5.0,31,0.00,,,0.00,Wunderground v.1.15,2013-05-12 19:54:00,
2013-05-12 14:59:00,66.7,37.4,30.06,South,171,2.0,5.0,34,0.00,,,0.00,Wunderground v.1.15,2013-05-12 19:59:00,
2013-05-12 15:05:00,67.2,37.1,30.06,SW,233,1.0,3.0,33,0.00,,,0.00,Wunderground v.1.15,2013-05-12 20:05:00,
2013-05-12 15:10:00,66.9,37.6,30.06,NW,306,2.0,2.0,34,0.00,,,0.00,Wunderground v.1.15,2013-05-12 20:10:00,
2013-05-12 15:15:00,67.4,38.8,30.06,WSW,238,2.0,2.0,35,0.00,,,0.00,Wunderground v.1.15,2013-05-12 20:15:00,
2013-05-12 15:20:00,66.9,33.6,30.07,East,83,2.0,2.0,29,0.00,,,0.00,Wunderground v.1.15,2013-05-12 20:20:00,
2013-05-12 15:26:00,66.3,32.2,30.06,East,95,2.0,3.0,28,0.00,,,0.00,Wunderground v.1.15,2013-05-12 20:26:00,
2013-05-12 15:31:00,66.4,36.4,30.06,SW,218,2.0,4.0,33,0.00,,,0.00,Wunderground v.1.15,2013-05-12 20:31:00,
2013-05-12 15:36:00,66.0,35.3,30.06,WSW,241,2.0,6.0,32,0.00,,,0.00,Wunderground v.1.15,2013-05-12 20:36:00,
2013-05-12 15:42:00,66.6,36.6,30.07,East,84,2.0,3.0,33,0.00,,,0.00,Wunderground v.1.15,2013-05-12 20:42:00,
2013-05-12 15:47:00,66.7,38.9,30.07,WSW,252,2.0,5.0,36,0.00,,,0.00,Wunderground v.1.15,2013-05-12 20:47:00,
2013-05-12 15:52:00,66.4,37.2,30.07,NE,43,2.0,2.0,34,0.00,,,0.00,Wunderground v.1.15,2013-05-12 20:52:00,
2013-05-12 15:58:00,66.9,35.3,30.07,NE,43,2.0,4.0,31,0.00,,,0.00,Wunderground v.1.15,2013-05-12 20:58:00,
2013-05-12 16:05:00,66.4,36.4,30.07,SW,221,2.0,4.0,33,0.00,,,0.00,Wunderground v.1.15,2013-05-12 21:05:00,
2013-05-12 16:10:00,66.4,36.4,30.07,SW,230,2.0,3.0,33,0.00,,,0.00,Wunderground v.1.15,2013-05-12 21:10:00,
2013-05-12 16:16:00,66.0,36.8,30.07,West,276,2.0,3.0,34,0.00,,,0.00,Wunderground v.1.15,2013-05-12 21:16:00,
2013-05-12 16:22:00,66.0,35.3,30.07,East,100,2.0,2.0,32,0.00,,,0.00,Wunderground v.1.15,2013-05-12 21:22:00,
2013-05-12 16:27:00,65.6,36.5,30.08,West,271,2.0,5.0,34,0.00,,,0.00,Wunderground v.1.15,2013-05-12 21:27:00,
2013-05-12 16:32:00,65.0,34.4,30.08,NNE,17,2.0,2.0,32,0.00,,,0.00,Wunderground v.1.15,2013-05-12 21:32:00,
2013-05-12 16:38:00,64.6,35.6,30.08,SE,133,2.0,3.0,34,0.00,,,0.00,Wunderground v.1.15,2013-05-12 21:38:00,
2013-05-12 16:43:00,64.1,35.1,30.08,WSW,241,2.0,6.0,34,0.00,,,0.00,Wunderground v.1.15,2013-05-12 21:43:00,
2013-05-12 16:48:00,64.0,35.8,30.09,WSW,247,2.0,6.0,35,0.00,,,0.00,Wunderground v.1.15,2013-05-12 21:48:00,
2013-05-12 16:54:00,63.7,35.5,30.08,ESE,103,2.0,4.0,35,0.00,,,0.00,Wunderground v.1.15,2013-05-12 21:54:00,
2013-05-12 16:59:00,63.6,36.1,30.09,NE,56,2.0,4.0,36,0.00,,,0.00,Wunderground v.1.15,2013-05-12 21:59:00,
2013-05-12 17:04:00,63.5,36.0,30.08,SSW,211,1.0,3.0,36,0.00,,,0.00,Wunderground v.1.15,2013-05-12 22:04:00,
2013-05-12 17:09:00,63.3,36.6,30.08,ESE,117,2.0,7.0,37,0.00,,,0.00,Wunderground v.1.15,2013-05-12 22:09:00,
2013-05-12 17:15:00,63.0,35.6,30.08,SSW,213,2.0,2.0,36,0.00,,,0.00,Wunderground v.1.15,2013-05-12 22:15:00,
2013-05-12 17:20:00,62.7,34.6,30.08,East,101,2.0,2.0,35,0.00,,,0.00,Wunderground v.1.15,2013-05-12 22:20:00,
2013-05-12 17:25:00,62.5,35.9,30.08,SE,143,1.0,2.0,37,0.00,,,0.00,Wunderground v.1.15,2013-05-12 22:25:00,
2013-05-12 17:31:00,62.4,35.8,30.08,SSW,202,1.0,2.0,37,0.00,,,0.00,Wunderground v.1.15,2013-05-12 22:31:00,
2013-05-12 17:36:00,62.1,35.5,30.08,NNE,32,2.0,4.0,37,0.00,,,0.00,Wunderground v.1.15,2013-05-12 22:36:00,
2013-05-12 17:41:00,61.9,34.6,30.08,East,84,2.0,2.0,36,0.00,,,0.00,Wunderground v.1.15,2013-05-12 22:41:00,
2013-05-12 17:46:00,61.7,35.1,30.08,SW,223,1.0,2.0,37,0.00,,,0.00,Wunderground v.1.15,2013-05-12 22:46:00,
2013-05-12 17:52:00,61.6,34.4,30.08,NNE,15,1.0,2.0,36,0.00,,,0.00,Wunderground v.1.15,2013-05-12 22:52:00,
2013-05-12 17:57:00,61.4,35.5,30.08,WSW,240,1.0,3.0,38,0.00,,,0.00,Wunderground v.1.15,2013-05-12 22:57:00,
2013-05-12 18:02:00,61.1,35.3,30.08,SW,215,2.0,3.0,38,0.00,,,0.00,Wunderground v.1.15,2013-05-12 23:02:00,
2013-05-12 18:08:00,60.9,35.1,30.08,SE,144,1.0,3.0,38,0.00,,,0.00,Wunderground v.1.15,2013-05-12 23:08:00,
2013-05-12 18:13:00,60.7,33.6,30.08,NNE,23,1.0,1.0,36,0.00,,,0.00,Wunderground v.1.15,2013-05-12 23:13:00,
2013-05-12 18:18:00,60.4,35.3,30.08,WSW,247,1.0,3.0,39,0.00,,,0.00,Wunderground v.1.15,2013-05-12 23:18:00,
2013-05-12 18:24:00,60.1,34.4,30.08,North,349,1.0,1.0,38,0.00,,,0.00,Wunderground v.1.15,2013-05-12 23:24:00,
2013-05-12 18:30:00,59.9,33.5,30.09,SW,230,0.0,1.0,37,0.00,,,0.00,Wunderground v.1.15,2013-05-12 23:30:00,
2013-05-12 18:35:00,59.6,33.3,30.09,NE,53,1.0,2.0,37,0.00,,,0.00,Wunderground v.1.15,2013-05-12 23:35:00,
2013-05-12 18:41:00,59.6,33.3,30.09,ENE,61,1.0,1.0,37,0.00,,,0.00,Wunderground v.1.15,2013-05-12 23:41:00,
2013-05-12 18:46:00,59.3,34.3,30.09,South,176,1.0,3.0,39,0.00,,,0.00,Wunderground v.1.15,2013-05-12 23:46:00,
2013-05-12 18:51:00,59.0,34.1,30.09,SSW,202,1.0,1.0,39,0.00,,,0.00,Wunderground v.1.15,2013-05-12 23:51:00,
2013-05-12 18:56:00,58.8,33.2,30.09,East,100,1.0,2.0,38,0.00,,,0.00,Wunderground v.1.15,2013-05-12 23:56:00,
2013-05-12 19:02:00,58.6,33.7,30.09,SW,215,1.0,1.0,39,0.00,,,0.00,Wunderground v.1.15,2013-05-13 00:02:00,
2013-05-12 19:07:00,58.3,34.1,30.09,ESE,119,0.0,1.0,40,0.00,,,0.00,Wunderground v.1.15,2013-05-13 00:07:00,
2013-05-12 19:12:00,57.8,34.2,30.09,SW,217,0.0,1.0,41,0.00,,,0.00,Wunderground v.1.15,2013-05-13 00:12:00,
2013-05-12 19:17:00,57.4,33.9,30.10,SE,129,0.0,1.0,41,0.00,,,0.00,Wunderground v.1.15,2013-05-13 00:17:00,
2013-05-12 19:23:00,57.0,34.1,30.10,SW,225,0.0,2.0,42,0.00,,,0.00,Wunderground v.1.15,2013-05-13 00:23:00,
2013-05-12 19:28:00,56.6,34.9,30.10,SSW,202,0.0,2.0,44,0.00,,,0.00,Wunderground v.1.15,2013-05-13 00:28:00,
2013-05-12 19:33:00,56.3,36.8,30.10,East,84,0.0,2.0,48,0.00,,,0.00,Wunderground v.1.15,2013-05-13 00:33:00,
2013-05-12 19:39:00,55.5,37.7,30.10,East,84,0.0,2.0,51,0.00,,,0.00,Wunderground v.1.15,2013-05-13 00:39:00,
2013-05-12 19:44:00,54.8,37.0,30.10,East,84,0.0,1.0,51,0.00,,,0.00,Wunderground v.1.15,2013-05-13 00:44:00,
2013-05-12 19:49:00,54.3,36.5,30.10,East,84,0.0,1.0,51,0.00,,,0.00,Wunderground v.1.15,2013-05-13 00:49:00,
2013-05-12 19:55:00,54.0,35.8,30.11,East,84,0.0,1.0,50,0.00,,,0.00,Wunderground v.1.15,2013-05-13 00:55:00,
2013-05-12 20:00:00,54.0,36.8,30.11,East,84,0.0,1.0,52,0.00,,,0.00,Wunderground v.1.15,2013-05-13 01:00:00,
2013-05-12 20:05:00,54.1,34.3,30.10,East,85,0.0,1.0,47,0.00,,,0.00,Wunderground v.1.15,2013-05-13 01:05:00,
2013-05-12 20:10:00,54.0,34.2,30.10,East,85,0.0,1.0,47,0.00,,,0.00,Wunderground v.1.15,2013-05-13 01:10:00,
2013-05-12 20:16:00,53.7,35.0,30.10,East,84,0.0,1.0,49,0.00,,,0.00,Wunderground v.1.15,2013-05-13 01:16:00,
2013-05-12 20:21:00,53.4,37.2,30.10,East,85,0.0,1.0,54,0.00,,,0.00,Wunderground v.1.15,2013-05-13 01:21:00,
2013-05-12 20:26:00,53.2,35.5,30.10,East,86,0.0,1.0,51,0.00,,,0.00,Wunderground v.1.15,2013-05-13 01:26:00,
2013-05-12 20:32:00,52.9,34.8,30.10,East,86,0.0,1.0,50,0.00,,,0.00,Wunderground v.1.15,2013-05-13 01:32:00,
2013-05-12 20:37:00,52.7,35.6,30.11,East,86,0.0,1.0,52,0.00,,,0.00,Wunderground v.1.15,2013-05-13 01:37:00,
2013-05-12 20:42:00,52.5,35.8,30.11,East,100,0.0,1.0,53,0.00,,,0.00,Wunderground v.1.15,2013-05-13 01:42:00,
2013-05-12 20:47:00,52.1,35.9,30.11,East,100,0.0,1.0,54,0.00,,,0.00,Wunderground v.1.15,2013-05-13 01:47:00,
2013-05-12 20:53:00,51.9,36.2,30.11,ESE,102,0.0,1.0,55,0.00,,,0.00,Wunderground v.1.15,2013-05-13 01:53:00,
2013-05-12 20:58:00,51.6,35.9,30.12,East,101,0.0,1.0,55,0.00,,,0.00,Wunderground v.1.15,2013-05-13 01:58:00,
2013-05-12 21:03:00,51.2,36.5,30.12,East,101,0.0,1.0,57,0.00,,,0.00,Wunderground v.1.15,2013-05-13 02:03:00,
2013-05-12 21:09:00,50.8,36.1,30.12,East,101,0.0,1.0,57,0.00,,,0.00,Wunderground v.1.15,2013-05-13 02:09:00,
2013-05-12 21:14:00,50.5,36.3,30.13,East,100,0.0,1.0,58,0.00,,,0.00,Wunderground v.1.15,2013-05-13 02:14:00,
2013-05-12 21:19:00,50.1,36.3,30.13,East,100,0.0,1.0,59,0.00,,,0.00,Wunderground v.1.15,2013-05-13 02:19:00,
2013-05-12 21:25:00,50.0,37.1,30.13,SW,216,0.0,1.0,61,0.00,,,0.00,Wunderground v.1.15,2013-05-13 02:25:00,
2013-05-12 21:31:00,49.5,37.0,30.13,SW,216,0.0,1.0,62,0.00,,,0.00,Wunderground v.1.15,2013-05-13 02:31:00,
2013-05-12 21:36:00,49.1,36.6,30.13,SW,215,0.0,1.0,62,0.00,,,0.00,Wunderground v.1.15,2013-05-13 02:36:00,
2013-05-12 21:41:00,48.9,37.3,30.14,SW,215,0.0,1.0,64,0.00,,,0.00,Wunderground v.1.15,2013-05-13 02:41:00,
2013-05-12 21:47:00,48.6,37.7,30.14,SW,215,0.0,1.0,66,0.00,,,0.00,Wunderground v.1.15,2013-05-13 02:47:00,
2013-05-12 21:52:00,48.2,35.8,30.14,SW,215,0.0,1.0,62,0.00,,,0.00,Wunderground v.1.15,2013-05-13 02:52:00,
2013-05-12 21:57:00,48.1,35.3,30.14,SW,215,0.0,1.0,61,0.00,,,0.00,Wunderground v.1.15,2013-05-13 02:57:00,
2013-05-12 22:03:00,48.2,35.4,30.14,SW,215,0.0,1.0,61,0.00,,,0.00,Wunderground v.1.15,2013-05-13 03:03:00,
2013-05-12 22:08:00,48.5,35.2,30.14,SW,215,0.0,1.0,60,0.00,,,0.00,Wunderground v.1.15,2013-05-13 03:08:00,
2013-05-12 22:13:00,48.7,35.8,30.15,SW,215,0.0,1.0,61,0.00,,,0.00,Wunderground v.1.15,2013-05-13 03:13:00,
2013-05-12 22:18:00,48.8,35.9,30.15,SW,215,0.0,1.0,61,0.00,,,0.00,Wunderground v.1.15,2013-05-13 03:18:00,
2013-05-12 22:24:00,48.8,37.2,30.15,SW,214,0.0,1.0,64,0.00,,,0.00,Wunderground v.1.15,2013-05-13 03:24:00,
2013-05-12 22:29:00,48.8,36.8,30.15,ESE,122,0.0,1.0,63,0.00,,,0.00,Wunderground v.1.15,2013-05-13 03:29:00,
2013-05-12 22:34:00,48.8,37.2,30.15,ESE,122,0.0,1.0,64,0.00,,,0.00,Wunderground v.1.15,2013-05-13 03:34:00,
2013-05-12 22:40:00,48.8,36.4,30.15,ESE,122,0.0,1.0,62,0.00,,,0.00,Wunderground v.1.15,2013-05-13 03:40:00,
2013-05-12 22:45:00,48.6,36.6,30.15,ESE,122,0.0,1.0,63,0.00,,,0.00,Wunderground v.1.15,2013-05-13 03:45:00,
2013-05-12 22:50:00,48.4,37.2,30.15,ESE,122,0.0,1.0,65,0.00,,,0.00,Wunderground v.1.15,2013-05-13 03:50:00,
2013-05-12 22:55:00,48.1,38.8,30.15,ESE,122,0.0,1.0,70,0.00,,,0.00,Wunderground v.1.15,2013-05-13 03:55:00,
2013-05-12 23:01:00,47.4,37.7,30.15,SE,135,0.0,1.0,69,0.00,,,0.00,Wunderground v.1.15,2013-05-13 04:01:00,
2013-05-12 23:02:00,47.2,37.5,30.15,SE,136,0.0,1.0,69,0.00,,,0.00,Wunderground v.1.15,2013-05-13 04:02:00,
2013-05-12 23:04:00,47.0,37.4,30.16,SE,135,0.0,1.0,69,0.00,,,0.00,Wunderground v.1.15,2013-05-13 04:04:00,
2013-05-12 23:05:00,46.9,37.3,30.16,SE,135,0.0,1.0,69,0.00,,,0.00,Wunderground v.1.15,2013-05-13 04:05:00,
2013-05-12 23:10:00,46.4,36.8,30.15,SE,136,0.0,1.0,69,0.00,,,0.00,Wunderground v.1.15,2013-05-13 04:10:00,
2013-05-12 23:11:00,46.4,36.8,30.15,SE,135,0.0,1.0,69,0.00,,,0.00,Wunderground v.1.15,2013-05-13 04:11:00,
2013-05-12 23:17:00,46.1,37.9,30.16,SSW,200,0.0,1.0,73,0.00,,,0.00,Wunderground v.1.15,2013-05-13 04:17:00,
2013-05-12 23:22:00,45.8,37.3,30.16,SSW,200,0.0,1.0,72,0.00,,,0.00,Wunderground v.1.15,2013-05-13 04:22:00,
2013-05-12 23:27:00,45.6,37.8,30.16,SSW,200,0.0,1.0,74,0.00,,,0.00,Wunderground v.1.15,2013-05-13 04:27:00,
2013-05-12 23:33:00,45.4,38.3,30.15,SW,223,0.0,1.0,76,0.00,,,0.00,Wunderground v.1.15,2013-05-13 04:33:00,
2013-05-12 23:39:00,45.2,38.1,30.16,SW,223,0.0,1.0,76,0.00,,,0.00,Wunderground v.1.15,2013-05-13 04:39:00,
2013-05-12 23:44:00,45.0,37.6,30.16,SW,223,0.0,1.0,75,0.00,,,0.00,Wunderground v.1.15,2013-05-13 04:44:00,
2013-05-12 23:49:00,44.7,37.6,30.16,SW,223,0.0,1.0,76,0.00,,,0.00,Wunderground v.1.15,2013-05-13 04:49:00,
2013-05-12 23:55:00,44.3,37.2,30.16,SW,223,0.0,1.0,76,0.00,,,0.00,Wunderground v.1.15,2013-05-13 04:55:00,